Time;durP1;ratioP1;P1;durP2;ratioP2;P2;SDS_P1;SDS_P2;PMS_P1;PMS_P2;Temp;Humidity;BMP_temperature;BMP_pressure;BME280_temperature;BME280_humidity;BME280_pressure;Samples;Min_cycle;Max_cycle;Signal;HPM_P1;HPM_P2
2023/04/07 00:01:04;;;;;;;38.97;25.30;;;;;;;;;;4933182;29;20050;-85
2023/04/07 00:03:30;;;;;;;41.67;25.98;;;;;;;;;;4939326;29;20054;-86
2023/04/07 00:05:56;;;;;;;44.13;26.23;;;;;;;;;;4954087;28;20051;-85
2023/04/07 00:08:22;;;;;;;43.72;26.92;;;;;;;;;;4932746;29;20043;-85
2023/04/07 00:10:48;;;;;;;48.78;27.08;;;;;;;;;;4932802;29;20130;-85
2023/04/07 00:13:15;;;;;;;46.70;28.27;;;;;;;;;;4932079;29;20391;-85
2023/04/07 00:15:40;;;;;;;42.67;26.20;;;;;;;;;;4933291;29;20051;-85
2023/04/07 00:18:06;;;;;;;46.70;27.48;;;;;;;;;;4931733;29;20039;-85
2023/04/07 00:20:32;;;;;;;43.92;27.33;;;;;;;;;;4927702;29;20047;-86
2023/04/07 00:22:58;;;;;;;43.60;27.08;;;;;;;;;;4933512;29;20729;-85
2023/04/07 00:25:25;;;;;;;43.13;27.25;;;;;;;;;;4933667;28;20039;-85
2023/04/07 00:27:50;;;;;;;39.42;25.25;;;;;;;;;;4949451;29;20126;-85
2023/04/07 00:30:16;;;;;;;43.05;26.88;;;;;;;;;;4936615;29;20130;-85
2023/04/07 00:32:42;;;;;;;47.08;26.75;;;;;;;;;;4948432;29;20043;-85
2023/04/07 00:35:09;;;;;;;46.88;28.40;;;;;;;;;;4946185;29;20401;-85
2023/04/07 00:37:35;;;;;;;47.25;29.27;;;;;;;;;;4935503;29;20536;-85
2023/04/07 00:40:01;;;;;;;45.72;26.25;;;;;;;;;;4936650;29;20074;-86
2023/04/07 00:42:27;;;;;;;46.60;29.65;;;;;;;;;;4936365;29;20090;-87
2023/04/07 00:44:53;;;;;;;47.08;29.00;;;;;;;;;;4953008;29;20102;-85
2023/04/07 00:47:19;;;;;;;49.47;29.13;;;;;;;;;;4937082;29;20474;-85
2023/04/07 00:49:45;;;;;;;46.78;26.70;;;;;;;;;;4917952;29;20121;-85
2023/04/07 00:52:11;;;;;;;51.03;29.08;;;;;;;;;;4914608;29;20126;-86
2023/04/07 00:54:38;;;;;;;52.88;29.40;;;;;;;;;;4947383;28;20047;-84
2023/04/07 00:57:04;;;;;;;58.40;32.13;;;;;;;;;;4930390;29;20051;-85
2023/04/07 00:59:31;;;;;;;49.30;29.33;;;;;;;;;;4934843;29;20046;-85
2023/04/07 01:02:07;;;;;;;49.95;29.88;;;;;;;;;;4936545;29;20036;-85
2023/04/07 01:04:38;;;;;;;57.28;30.85;;;;;;;;;;4932047;29;20262;-85
2023/04/07 01:07:26;;;;;;;52.60;28.90;;;;;;;;;;4936415;29;20102;-85
2023/04/07 01:10:00;;;;;;;53.50;31.23;;;7.80;99.90;;;;;;4933178;29;20047;-85
2023/04/07 01:12:40;;;;;;;52.60;29.93;;;;;;;;;;4935864;29;20117;-86
2023/04/07 01:15:10;;;;;;;52.30;30.50;;;;;;;;;;4936141;29;20309;-85
2023/04/07 01:17:38;;;;;;;59.28;31.45;;;;;;;;;;4936097;29;20321;-85
2023/04/07 01:20:07;;;;;;;65.63;32.35;;;;;;;;;;4934621;29;20162;-86
2023/04/07 01:22:51;;;;;;;64.05;33.30;;;;;;;;;;4935473;29;20043;-85
2023/04/07 01:25:32;;;;;;;55.40;29.45;;;;;;;;;;4935826;29;20397;-87
2023/04/07 01:28:39;;;;;;;69.15;33.35;;;7.80;99.90;;;;;;4935530;29;20055;-85
2023/04/07 01:31:08;;;;;;;58.08;29.30;;;7.80;99.90;;;;;;4917181;29;20153;-85
2023/04/07 01:33:34;;;;;;;56.70;30.67;;;;;;;;;;4935251;29;20101;-85
2023/04/07 01:36:00;;;;;;;52.33;30.67;;;;;;;;;;4913578;29;20043;-85
2023/04/07 01:38:27;;;;;;;60.05;30.85;;;;;;;;;;4931175;29;20051;-86
2023/04/07 01:40:54;;;;;;;57.75;30.15;;;;;;;;;;4935821;29;20604;-85
2023/04/07 01:43:21;;;;;;;58.47;30.90;;;;;;;;;;4917550;29;20047;-85
2023/04/07 01:45:47;;;;;;;69.15;33.55;;;;;;;;;;4935558;29;20039;-86
2023/04/07 01:48:13;;;;;;;62.83;30.75;;;;;;;;;;4934314;29;20182;-85
2023/04/07 01:50:39;;;;;;;56.42;30.75;;;;;;;;;;4932841;29;20544;-85
2023/04/07 01:53:06;;;;;;;56.95;30.40;;;;;;;;;;4935492;29;20039;-85
2023/04/07 01:55:32;;;;;;;62.45;32.42;;;;;;;;;;4942848;29;20054;-87
2023/04/07 01:57:58;;;;;;;73.20;33.33;;;;;;;;;;4933598;29;21505;-85
2023/04/07 02:00:24;;;;;;;59.97;30.00;;;;;;;;;;4932703;29;20050;-85
2023/04/07 02:02:54;;;;;;;57.22;30.30;;;;;;;;;;4929048;29;20043;-85
2023/04/07 02:05:21;;;;;;;58.60;31.58;;;;;;;;;;4919671;29;20055;-85
2023/04/07 02:08:02;;;;;;;65.22;32.83;;;7.70;99.90;;;;;;4935177;29;20043;-87
2023/04/07 02:10:29;;;;;;;58.97;30.50;;;;;;;;;;4913412;29;20043;-85
2023/04/07 02:12:56;;;;;;;57.17;31.95;;;;;;;;;;4917613;29;20460;-85
2023/04/07 02:15:22;;;;;;;56.45;31.40;;;;;;;;;;4918150;29;20446;-85
2023/04/07 02:17:51;;;;;;;56.25;31.92;;;;;;;;;;4917490;29;20401;-85
2023/04/07 02:20:21;;;;;;;64.15;32.58;;;;;;;;;;4934824;29;20051;-85
2023/04/07 02:22:47;;;;;;;60.58;31.35;;;;;;;;;;4934829;29;20043;-85
2023/04/07 02:25:20;;;;;;;55.60;30.95;;;;;;;;;;4935413;29;20055;-85
2023/04/07 02:27:46;;;;;;;60.85;32.00;;;;;;;;;;4933969;29;20138;-85
2023/04/07 02:30:12;;;;;;;55.75;31.50;;;;;;;;;;4934967;29;20097;-85
2023/04/07 02:32:38;;;;;;;56.35;30.30;;;;;;;;;;4933941;29;20039;-85
2023/04/07 02:35:04;;;;;;;57.70;30.73;;;;;;;;;;4935100;29;20129;-86
2023/04/07 02:37:30;;;;;;;55.53;30.35;;;;;;;;;;4929913;29;20043;-86
2023/04/07 02:39:56;;;;;;;63.45;31.10;;;;;;;;;;4944928;29;20039;-85
2023/04/07 02:42:23;;;;;;;56.95;30.65;;;;;;;;;;4934145;29;20054;-85
2023/04/07 02:44:50;;;;;;;59.30;31.05;;;;;;;;;;4934962;29;20047;-85
2023/04/07 02:47:16;;;;;;;56.03;29.88;;;;;;;;;;4934209;29;20039;-85
2023/04/07 02:49:42;;;;;;;65.63;31.50;;;;;;;;;;4933902;29;20047;-86
2023/04/07 02:52:08;;;;;;;61.55;31.90;;;;;;;;;;4930510;29;20035;-86
2023/04/07 02:54:34;;;;;;;58.90;30.60;;;;;;;;;;4941746;29;20488;-86
2023/04/07 02:57:00;;;;;;;59.05;32.45;;;;;;;;;;4933955;29;20155;-85
2023/04/07 02:59:26;;;;;;;63.65;30.90;;;;;;;;;;4915625;29;20046;-85
2023/04/07 03:01:52;;;;;;;68.05;31.95;;;;;;;;;;4909408;29;20052;-86
2023/04/07 03:04:18;;;;;;;61.63;32.63;;;;;;;;;;4933884;29;20044;-86
2023/04/07 03:06:44;;;;;;;60.42;31.75;;;;;;;;;;4924515;29;20042;-86
2023/04/07 03:09:10;;;;;;;66.55;32.55;;;;;;;;;;4933818;29;20054;-85
2023/04/07 03:11:37;;;;;;;56.70;31.42;;;;;;;;;;4960532;28;20046;-85
2023/04/07 03:14:03;;;;;;;61.33;31.45;;;;;;;;;;4913423;29;20054;-85
2023/04/07 03:16:29;;;;;;;59.33;31.00;;;;;;;;;;4933414;29;20051;-86
2023/04/07 03:18:56;;;;;;;60.30;31.08;;;;;;;;;;4933003;29;20057;-86
2023/04/07 03:21:22;;;;;;;60.20;31.73;;;;;;;;;;4933975;29;20126;-85
2023/04/07 03:23:48;;;;;;;60.88;30.67;;;;;;;;;;4914079;29;20043;-86
2023/04/07 03:26:15;;;;;;;70.72;33.55;;;;;;;;;;4931323;29;20047;-85
2023/04/07 03:28:41;;;;;;;68.60;33.80;;;;;;;;;;4915764;29;20059;-85
2023/04/07 03:31:07;;;;;;;65.75;32.22;;;;;;;;;;4932196;29;20146;-85
2023/04/07 03:33:33;;;;;;;58.33;30.25;;;;;;;;;;4933110;29;20053;-85
2023/04/07 03:35:59;;;;;;;57.17;31.30;;;;;;;;;;4934142;29;20039;-86
2023/04/07 03:38:25;;;;;;;63.55;30.60;;;;;;;;;;4934744;29;20065;-85
2023/04/07 03:40:51;;;;;;;65.00;32.60;;;;;;;;;;4951512;28;20061;-85
2023/04/07 03:43:17;;;;;;;57.30;31.08;;;;;;;;;;4916682;29;20043;-85
2023/04/07 03:45:43;;;;;;;65.10;31.85;;;;;;;;;;4933914;29;20110;-87
2023/04/07 03:48:10;;;;;;;66.03;33.85;;;;;;;;;;4934424;29;20510;-86
2023/04/07 03:50:36;;;;;;;63.90;31.17;;;;;;;;;;4933708;29;20924;-85
2023/04/07 03:53:02;;;;;;;65.68;31.67;;;;;;;;;;4933441;29;20094;-85
2023/04/07 03:55:29;;;;;;;60.15;30.95;;;;;;;;;;4933559;29;20421;-85
2023/04/07 03:57:55;;;;;;;62.78;30.23;;;;;;;;;;4931690;29;20202;-85
2023/04/07 04:00:21;;;;;;;61.70;32.22;;;;;;;;;;4932651;29;20051;-87
2023/04/07 04:02:47;;;;;;;60.75;30.60;;;;;;;;;;4936942;29;20070;-85
2023/04/07 04:05:13;;;;;;;57.15;30.33;;;;;;;;;;4910577;29;20046;-86
2023/04/07 04:07:39;;;;;;;71.10;33.15;;;;;;;;;;4934180;29;20039;-88
2023/04/07 04:10:05;;;;;;;56.10;30.10;;;;;;;;;;4937121;29;20050;-85
2023/04/07 04:12:32;;;;;;;49.67;25.65;;;;;;;;;;4938189;29;20047;-84
2023/04/07 04:14:58;;;;;;;63.50;31.20;;;;;;;;;;4920919;29;20050;-85
2023/04/07 04:17:25;;;;;;;58.75;30.20;;;;;;;;;;4937431;29;20061;-85
2023/04/07 04:19:53;;;;;;;75.82;32.35;;;;;;;;;;4936701;29;20043;-86
2023/04/07 04:22:24;;;;;;;55.28;29.38;;;;;;;;;;4942637;29;20070;-85
2023/04/07 04:24:51;;;;;;;61.65;30.63;;;;;;;;;;4921432;29;20039;-85
2023/04/07 04:27:16;;;;;;;66.53;31.58;;;;;;;;;;4945176;28;20059;-85
2023/04/07 04:29:42;;;;;;;60.78;29.60;;;;;;;;;;4934401;29;20086;-85
2023/04/07 04:32:09;;;;;;;65.93;31.83;;;;;;;;;;4929713;29;20050;-85
2023/04/07 04:34:35;;;;;;;64.72;30.95;;;;;;;;;;4934865;29;20082;-86
2023/04/07 04:37:01;;;;;;;69.15;31.67;;;;;;;;;;4934668;29;20085;-86
2023/04/07 04:39:27;;;;;;;73.45;33.08;;;;;;;;;;4921518;29;20043;-89
2023/04/07 04:41:53;;;;;;;68.32;32.22;;;;;;;;;;4930478;29;20047;-86
2023/04/07 04:44:18;;;;;;;65.65;32.28;;;;;;;;;;4934075;29;20048;-85
2023/04/07 04:46:45;;;;;;;60.20;29.95;;;;;;;;;;4946765;29;20150;-86
2023/04/07 04:49:11;;;;;;;69.80;32.08;;;;;;;;;;4931659;29;20065;-87
2023/04/07 04:51:37;;;;;;;65.30;31.30;;;;;;;;;;4934956;29;20118;-86
2023/04/07 04:54:05;;;;;;;70.63;32.55;;;;;;;;;;4934687;29;20047;-86
2023/04/07 04:56:31;;;;;;;57.80;28.83;;;;;;;;;;4931439;29;20413;-86
2023/04/07 04:58:57;;;;;;;64.90;32.35;;;;;;;;;;4933318;29;20049;-86
2023/04/07 05:01:23;;;;;;;58.83;29.48;;;;;;;;;;4935882;29;20050;-86
2023/04/07 05:03:49;;;;;;;48.58;25.15;;;;;;;;;;4930538;29;20102;-85
2023/04/07 05:06:15;;;;;;;53.10;28.10;;;;;;;;;;4934730;29;20122;-87
2023/04/07 05:08:41;;;;;;;55.42;26.90;;;;;;;;;;4934141;29;20039;-86
2023/04/07 05:11:07;;;;;;;43.22;25.30;;;;;;;;;;4935158;29;20126;-86
2023/04/07 05:14:12;;;;;;;57.78;27.20;;;;;;;;;;4941076;29;20043;-86
2023/04/07 05:20:26;;;;;;;41.50;22.48;;;;;;;;;;4957754;29;20042;-86
2023/04/07 05:26:46;;;;;;;46.55;22.83;;;;;;;;;;4961579;28;20066;-86
2023/04/07 06:12:22;;;;;;;37.00;22.42;;;;;;;;;;4944413;29;20121;-85
2023/04/07 06:14:57;;;;;;;37.13;22.27;;;;;;;;;;4949671;28;20042;-88
2023/04/07 06:17:23;;;;;;;33.35;19.55;;;;;;;;;;4961887;28;20054;-88
2023/04/07 06:19:49;;;;;;;41.88;23.88;;;;;;;;;;4935868;29;20505;-85
2023/04/07 06:22:15;;;;;;;40.65;24.45;;;;;;;;;;4931607;29;20047;-85
2023/04/07 06:24:41;;;;;;;39.83;22.15;;;;;;;;;;4949208;28;20102;-85
2023/04/07 06:27:07;;;;;;;40.03;23.13;;;;;;;;;;4947250;29;20126;-85
2023/04/07 06:29:33;;;;;;;40.30;24.30;;;;;;;;;;4928787;29;20165;-86
2023/04/07 06:32:00;;;;;;;32.33;19.70;;;;;;;;;;4940610;29;20055;-85
2023/04/07 06:34:26;;;;;;;31.67;18.75;;;;;;;;;;4932290;29;20122;-86
2023/04/07 06:44:20;;;;;;;38.67;22.00;;;;;;;;;;4963555;28;20050;-87
2023/04/07 06:53:55;;;;;;;35.97;23.05;;;7.80;99.90;;;;;;4957931;28;20065;-88
2023/04/07 06:57:02;;;;;;;36.05;21.30;;;;;;;;;;4937602;29;20142;-84
2023/04/07 06:59:31;;;;;;;36.80;21.25;;;;;;;;;;4929145;29;20043;-85
2023/04/07 07:02:59;;;;;;;35.67;21.33;;;;;;;;;;4916671;29;20055;-85
2023/04/07 07:05:36;;;;;;;35.72;21.00;;;;;;;;;;4909000;29;20059;-85
2023/04/07 07:08:26;;;;;;;36.92;21.08;;;;;;;;;;4901594;29;20059;-84
2023/04/07 07:11:10;;;;;;;36.85;21.85;;;;;;;;;;4892164;29;20052;-84
2023/04/07 07:13:38;;;;;;;36.67;21.13;;;;;;;;;;4892202;29;20076;-85
2023/04/07 07:16:29;;;;;;;35.00;20.45;;;;;;;;;;4901474;29;20051;-85
2023/04/07 07:27:08;;;;;;;26.95;16.38;;;;;;;;;;4864804;29;20049;-85
2023/04/07 07:33:27;;;;;;;29.83;18.75;;;;;;;;;;4904003;29;20076;-88
2023/04/07 07:36:44;;;;;;;31.60;18.90;;;7.80;99.90;;;;;;4897722;29;20071;-85
2023/04/07 07:43:45;;;;;;;25.88;15.90;;;;;;;;;;4845889;29;20098;-86
2023/04/07 07:46:39;;;;;;;29.80;18.17;;;;;;;;;;4838177;29;20129;-86
2023/04/07 07:49:24;;;;;;;29.45;18.42;;;;;;;;;;4811809;29;20054;-84
2023/04/07 07:51:50;;;;;;;25.45;16.70;;;;;;;;;;4903746;23;20094;-69
2023/04/07 07:54:17;;;;;;;30.95;18.95;;;;;;;;;;4962266;28;20067;-71
2023/04/07 07:56:43;;;;;;;29.08;17.40;;;;;;;;;;4956800;28;20149;-71
2023/04/07 07:59:12;;;;;;;27.23;18.25;;;;;;;;;;4930726;28;20097;-72
2023/04/07 08:02:14;;;;;;;28.45;18.33;;;;;;;;;;4946725;28;20141;-72
2023/04/07 08:05:08;;;;;;;32.13;20.63;;;;;;;;;;4961517;28;20054;-72
2023/04/07 08:07:35;;;;;;;31.80;21.38;;;;;;;;;;4949391;28;20041;-73
2023/04/07 08:10:01;;;;;;;32.15;22.05;;;;;;;;;;4937775;28;20035;-73
2023/04/07 08:12:27;;;;;;;31.17;19.83;;;;;;;;;;4937296;28;20449;-72
2023/04/07 08:14:53;;;;;;;35.25;22.92;;;;;;;;;;4954931;28;20050;-72
2023/04/07 08:17:19;;;;;;;37.38;24.75;;;;;;;;;;4956430;28;20046;-70
2023/04/07 08:19:45;;;;;;;38.13;22.98;;;;;;;;;;4937747;28;20481;-75
2023/04/07 08:22:11;;;;;;;37.92;23.65;;;;;;;;;;4955281;28;20404;-71
2023/04/07 08:24:40;;;;;;;32.80;19.13;;;;;;;;;;4953109;28;20039;-70
2023/04/07 08:27:06;;;;;;;37.95;22.98;;;;;;;;;;4951982;28;20121;-73
2023/04/07 08:29:32;;;;;;;33.75;22.58;;;;;;;;;;4948208;28;20043;-71
2023/04/07 08:31:58;;;;;;;37.15;23.40;;;;;;;;;;4951269;28;20058;-72
2023/04/07 08:34:24;;;;;;;35.53;22.58;;;;;;;;;;4948048;28;20050;-71
2023/04/07 08:36:50;;;;;;;36.38;23.50;;;;;;;;;;4949304;28;20053;-71
2023/04/07 08:39:16;;;;;;;33.50;22.40;;;;;;;;;;4966175;28;20050;-71
2023/04/07 08:41:44;;;;;;;35.78;22.48;;;;;;;;;;4970319;28;20042;-71
2023/04/07 08:44:10;;;;;;;32.03;19.60;;;;;;;;;;4950533;28;20058;-70
2023/04/07 08:46:40;;;;;;;33.85;21.50;;;;;;;;;;4948683;28;20138;-71
2023/04/07 08:49:13;;;;;;;37.10;22.52;;;;;;;;;;4952513;28;20073;-71
2023/04/07 08:51:44;;;;;;;33.08;22.65;;;;;;;;;;4949406;28;20448;-71
2023/04/07 08:54:11;;;;;;;32.13;21.48;;;;;;;;;;4970859;28;20058;-70
2023/04/07 08:56:39;;;;;;;32.33;22.38;;;;;;;;;;4953087;28;20050;-71
2023/04/07 08:59:06;;;;;;;29.50;20.20;;;;;;;;;;4970215;28;20050;-72
2023/04/07 09:01:34;;;;;;;31.35;21.75;;;;;;;;;;4955547;28;20074;-72
2023/04/07 09:04:01;;;;;;;30.77;21.38;;;;;;;;;;4970047;28;20043;-75
2023/04/07 09:06:30;;;;;;;32.75;21.77;;;;;;;;;;4966672;28;20051;-71
2023/04/07 09:08:56;;;;;;;29.77;18.75;;;;;;;;;;4974058;28;20109;-71
2023/04/07 09:11:23;;;;;;;29.63;19.50;;;;;;;;;;4952604;28;20054;-71
2023/04/07 09:13:50;;;;;;;29.38;19.45;;;;;;;;;;4970042;28;20050;-72
2023/04/07 09:16:16;;;;;;;29.75;20.15;;;;;;;;;;4952858;28;20424;-70
2023/04/07 09:18:42;;;;;;;27.05;19.13;;;;;;;;;;4949801;28;20051;-72
2023/04/07 09:21:10;;;;;;;30.58;20.73;;;;;;;;;;4951546;28;20046;-71
2023/04/07 09:23:39;;;;;;;23.92;16.80;;;;;;;;;;4952633;28;20508;-70
2023/04/07 09:26:22;;;;;;;24.30;17.40;;;9.10;99.90;;;;;;4953817;28;20512;-70
2023/04/07 09:28:49;;;;;;;23.50;16.75;;;;;;;;;;4935111;28;20046;-71
2023/04/07 09:31:15;;;;;;;20.90;15.52;;;9.20;99.90;;;;;;4951634;28;20133;-70
2023/04/07 09:33:41;;;;;;;21.15;14.82;;;9.30;99.90;;;;;;4951710;28;20153;-70
2023/04/07 09:36:07;;;;;;;20.88;13.40;;;;;;;;;;4968514;28;20039;-71
2023/04/07 09:38:38;;;;;;;18.77;13.25;;;;;;;;;;4969728;28;20042;-71
2023/04/07 09:41:12;;;;;;;17.30;12.68;;;9.40;99.90;;;;;;4952873;28;20478;-71
2023/04/07 09:43:46;;;;;;;18.88;14.32;;;;;;;;;;4951511;28;20138;-72
2023/04/07 09:46:17;;;;;;;18.15;13.85;;;9.40;99.90;;;;;;4952437;28;20055;-72
2023/04/07 09:48:44;;;;;;;18.63;13.23;;;9.60;99.90;;;;;;4953474;28;20145;-71
2023/04/07 09:51:10;;;;;;;16.25;13.65;;;;;;;;;;4951117;28;20153;-71
2023/04/07 09:53:48;;;;;;;15.93;11.73;;;9.60;99.90;;;;;;4969017;28;20058;-71
2023/04/07 09:56:15;;;;;;;14.85;10.85;;;;;;;;;;4938333;28;20493;-70
2023/04/07 09:58:42;;;;;;;13.18;10.00;;;;;;;;;;4950782;28;20078;-71
2023/04/07 10:01:09;;;;;;;13.07;9.80;;;;;;;;;;4975344;28;20038;-71
2023/04/07 10:03:35;;;;;;;15.20;11.38;;;;;;;;;;4951714;28;20125;-71
2023/04/07 10:06:02;;;;;;;13.27;10.32;;;;;;;;;;4954069;28;20405;-71
2023/04/07 10:08:28;;;;;;;13.73;10.60;;;;;;;;;;4951314;28;20050;-72
2023/04/07 10:10:56;;;;;;;13.85;11.27;;;;;;;;;;4950401;28;20125;-71
2023/04/07 10:13:38;;;;;;;12.63;10.77;;;;;;;;;;4964580;28;20061;-73
2023/04/07 10:16:05;;;;;;;13.55;10.77;;;;;;;;;;4951305;28;20125;-73
2023/04/07 10:18:32;;;;;;;13.77;11.60;;;;;;;;;;4943242;28;20050;-73
2023/04/07 10:21:00;;;;;;;13.60;10.20;;;;;;;;;;4966355;28;20047;-72
2023/04/07 10:23:45;;;;;;;14.63;11.70;;;;;;;;;;4951571;28;20058;-72
2023/04/07 10:26:14;;;;;;;13.23;10.88;;;;;;;;;;4946239;28;20051;-72
2023/04/07 10:28:42;;;;;;;16.35;11.90;;;;;;;;;;4968545;28;20047;-72
2023/04/07 10:31:08;;;;;;;12.80;10.57;;;;;;;;;;4943326;28;20507;-72
2023/04/07 10:33:50;;;;;;;12.88;10.48;;;;;;;;;;4968215;28;20051;-72
2023/04/07 10:36:19;;;;;;;16.42;11.85;;;9.90;99.90;;;;;;4965117;28;20077;-73
2023/04/07 10:39:04;;;;;;;17.70;14.60;;;;;;;;;;4948501;28;20046;-73
2023/04/07 10:41:35;;;;;;;15.60;12.75;;;;;;;;;;4952673;28;20086;-74
2023/04/07 10:44:02;;;;;;;15.95;12.10;;;;;;;;;;4968257;28;20082;-72
2023/04/07 10:46:47;;;;;;;17.92;14.05;;;;;;;;;;4969114;28;20043;-72
2023/04/07 10:49:13;;;;;;;17.70;13.65;;;;;;;;;;4950494;28;20053;-72
2023/04/07 10:51:39;;;;;;;20.08;13.00;;;10.00;99.90;;;;;;4951634;28;20047;-71
2023/04/07 10:54:15;;;;;;;18.77;13.07;;;;;;;;;;4945156;28;20051;-72
2023/04/07 10:57:02;;;;;;;19.08;13.18;;;10.20;99.90;;;;;;4968535;28;20053;-71
2023/04/07 10:59:29;;;;;;;18.33;14.27;;;;;;;;;;4966509;28;20035;-72
2023/04/07 11:02:24;;;;;;;17.70;12.57;;;;;;;;;;4950101;28;20050;-71
2023/04/07 11:04:51;;;;;;;16.60;11.55;;;;;;;;;;4938860;28;20074;-71
2023/04/07 11:07:18;;;;;;;16.30;13.20;;;;;;;;;;4950252;28;20081;-71
2023/04/07 11:09:44;;;;;;;19.83;13.90;;;;;;;;;;4962816;28;20053;-72
2023/04/07 11:12:23;;;;;;;18.88;14.32;;;;;;;;;;4945575;28;20101;-70
2023/04/07 11:14:49;;;;;;;17.58;13.07;;;;;;;;;;4950088;28;20078;-70
2023/04/07 11:17:20;;;;;;;13.73;9.82;;;;;;;;;;4948494;28;20085;-70
2023/04/07 11:19:53;;;;;;;11.18;8.55;;;;;;;;;;4946818;28;20043;-71
2023/04/07 11:22:19;;;;;;;12.07;9.38;;;;;;;;;;4938813;29;20043;-70
2023/04/07 11:24:46;;;;;;;9.40;7.22;;;;;;;;;;4960070;28;20043;-70
2023/04/07 11:27:12;;;;;;;9.32;7.28;;;;;;;;;;4948998;28;20133;-70
2023/04/07 11:29:39;;;;;;;8.05;6.72;;;;;;;;;;4949713;28;20043;-69
2023/04/07 11:32:05;;;;;;;8.80;6.30;;;;;;;;;;4966820;28;20141;-69
2023/04/07 11:34:35;;;;;;;8.10;6.68;;;;;;;;;;4949788;28;20042;-70
2023/04/07 11:37:20;;;;;;;7.97;6.93;;;;;;;;;;4967093;28;20039;-70
2023/04/07 11:39:56;;;;;;;7.82;6.68;;;;;;;;;;4943949;28;20047;-70
2023/04/07 11:42:35;;;;;;;8.55;7.20;;;;;;;;;;4966361;28;20050;-70
2023/04/07 11:45:01;;;;;;;9.93;8.07;;;;;;;;;;4948781;28;20071;-70
2023/04/07 11:47:34;;;;;;;8.98;7.32;;;;;;;;;;4967133;28;20202;-70
2023/04/07 11:50:00;;;;;;;9.68;7.25;;;;;;;;;;4963310;28;20055;-70
2023/04/07 11:52:26;;;;;;;8.95;7.30;;;;;;;;;;4965834;28;20068;-70
2023/04/07 11:54:52;;;;;;;10.35;7.28;;;;;;;;;;4949805;28;20058;-70
2023/04/07 11:57:28;;;;;;;8.75;6.70;;;;;;;;;;4967446;28;20416;-70
2023/04/07 12:00:07;;;;;;;8.65;7.07;;;;;;;;;;4962785;28;20074;-70
2023/04/07 12:02:33;;;;;;;9.82;6.82;;;10.70;99.90;;;;;;4948390;28;20047;-70
2023/04/07 12:04:59;;;;;;;9.50;6.72;;;;;;;;;;4967267;28;20097;-70
2023/04/07 12:07:25;;;;;;;7.10;6.10;;;;;;;;;;4949552;28;20053;-70
2023/04/07 12:09:52;;;;;;;8.18;6.78;;;;;;;;;;4944827;28;20043;-70
2023/04/07 12:12:26;;;;;;;7.57;6.18;;;;;;;;;;4948604;28;20057;-70
2023/04/07 12:14:52;;;;;;;8.70;6.50;;;;;;;;;;4949366;28;20090;-70
2023/04/07 12:17:25;;;;;;;9.10;7.25;;;;;;;;;;4967265;28;20046;-70
2023/04/07 12:19:51;;;;;;;8.98;7.00;;;;;;;;;;4966909;28;20140;-70
2023/04/07 12:22:17;;;;;;;7.85;6.03;;;;;;;;;;4967206;28;20047;-70
2023/04/07 12:24:43;;;;;;;9.85;8.15;;;;;;;;;;4952881;28;20047;-70
2023/04/07 12:27:09;;;;;;;12.13;9.65;;;;;;;;;;4952744;28;20073;-70
2023/04/07 12:29:39;;;;;;;12.93;10.20;;;;;;;;;;4952834;28;20050;-70
2023/04/07 12:32:05;;;;;;;13.98;10.55;;;;;;;;;;4952918;28;20053;-70
2023/04/07 12:34:31;;;;;;;13.88;9.93;;;;;;;;;;4952888;28;20047;-70
2023/04/07 12:36:57;;;;;;;10.73;7.63;;;;;;;;;;4953063;28;20046;-70
2023/04/07 12:39:22;;;;;;;10.35;7.78;;;;;;;;;;4952374;28;20101;-70
2023/04/07 12:41:51;;;;;;;8.75;7.55;;;;;;;;;;4970424;28;20118;-70
2023/04/07 12:44:17;;;;;;;9.07;6.70;;;;;;;;;;4952801;28;20425;-70
2023/04/07 12:46:43;;;;;;;8.45;5.93;;;;;;;;;;4970072;28;20051;-70
2023/04/07 12:49:09;;;;;;;7.78;6.50;;;10.20;99.90;;;;;;4950028;28;20105;-70
2023/04/07 12:51:36;;;;;;;8.35;6.60;;;;;;;;;;4968340;28;20097;-70
2023/04/07 12:54:02;;;;;;;9.02;7.10;;;;;;;;;;4956841;28;20055;-70
2023/04/07 12:56:28;;;;;;;9.23;7.03;;;;;;;;;;4970115;28;20637;-70
2023/04/07 12:58:54;;;;;;;7.32;6.07;;;;;;;;;;4949775;28;20054;-71
2023/04/07 13:01:20;;;;;;;8.55;6.43;;;;;;;;;;4967941;28;20696;-70
2023/04/07 13:03:47;;;;;;;8.98;6.32;;;;;;;;;;4952485;28;20043;-70
2023/04/07 13:06:13;;;;;;;9.55;6.93;;;;;;;;;;4969382;28;20049;-70
2023/04/07 13:08:39;;;;;;;9.50;7.72;;;;;;;;;;4967208;28;20035;-70
2023/04/07 13:11:06;;;;;;;8.90;6.38;;;;;;;;;;4950393;28;20160;-70
2023/04/07 13:13:32;;;;;;;8.65;6.70;;;;;;;;;;4952501;28;20507;-70
2023/04/07 13:15:58;;;;;;;8.73;6.70;;;;;;;;;;4952132;28;20101;-70
2023/04/07 13:18:24;;;;;;;9.45;7.35;;;;;;;;;;4969869;28;20039;-70
2023/04/07 13:20:50;;;;;;;8.95;6.90;;;10.20;99.90;;;;;;4967156;28;20045;-70
2023/04/07 13:23:16;;;;;;;10.05;7.10;;;;;;;;;;4952044;28;20038;-70
2023/04/07 13:25:42;;;;;;;9.32;6.60;;;;;;;;;;4968817;28;20042;-70
2023/04/07 13:28:08;;;;;;;10.68;7.38;;;;;;;;;;4952090;28;20039;-70
2023/04/07 13:30:35;;;;;;;9.45;7.60;;;;;;;;;;4969329;28;20456;-70
2023/04/07 13:33:00;;;;;;;10.65;7.93;;;10.70;99.90;;;;;;4969071;28;20039;-70
2023/04/07 13:35:27;;;;;;;13.38;8.20;;;;;;;;;;4951541;28;20073;-70
2023/04/07 13:37:53;;;;;;;12.55;8.35;;;;;;;;;;4968196;28;20085;-70
2023/04/07 13:40:19;;;;;;;10.98;8.32;;;;;;;;;;4948381;28;20047;-70
2023/04/07 13:42:45;;;;;;;10.93;8.45;;;;;;;;;;4951472;28;20737;-70
2023/04/07 13:45:11;;;;;;;11.23;8.50;;;;;;;;;;4951979;28;20053;-70
2023/04/07 13:47:37;;;;;;;8.73;7.03;;;;;;;;;;4950606;28;20073;-70
2023/04/07 13:50:04;;;;;;;8.20;6.35;;;;;;;;;;4949069;28;20552;-70
2023/04/07 13:52:31;;;;;;;11.43;7.05;;;11.30;99.90;;;;;;4967893;28;20105;-70
2023/04/07 13:54:57;;;;;;;9.10;6.75;;;;;;;;;;4955525;28;20056;-70
2023/04/07 13:57:23;;;;;;;7.85;6.32;;;;;;;;;;4952173;28;20057;-70
2023/04/07 13:59:52;;;;;;;8.02;6.05;;;11.10;99.90;;;;;;4969524;28;20545;-70
2023/04/07 14:02:19;;;;;;;8.35;6.25;;;;;;;;;;4946379;28;20054;-70
2023/04/07 14:04:45;;;;;;;7.65;6.25;;;11.40;99.90;;;;;;4951339;28;20501;-70
2023/04/07 14:07:11;;;;;;;10.00;6.93;;;;;;;;;;4951950;28;20086;-70
2023/04/07 14:09:37;;;;;;;9.25;7.38;;;;;;;;;;4950727;28;20047;-70
2023/04/07 14:12:03;;;;;;;8.77;6.22;;;11.30;99.90;;;;;;4968929;28;20404;-70
2023/04/07 14:14:30;;;;;;;8.48;6.05;;;;;;;;;;4941656;28;20043;-69
2023/04/07 14:16:56;;;;;;;9.52;6.75;;;11.30;99.90;;;;;;4945118;28;20047;-70
2023/04/07 14:19:23;;;;;;;7.57;4.95;;;;;;;;;;4945035;28;20138;-69
2023/04/07 14:21:49;;;;;;;8.18;6.05;;;;;;;;;;4950965;28;20043;-70
2023/04/07 14:24:15;;;;;;;6.93;5.50;;;11.10;99.90;;;;;;4952257;28;20456;-71
2023/04/07 14:26:45;;;;;;;8.60;6.15;;;11.10;99.90;;;;;;4967509;28;20101;-70
2023/04/07 14:29:14;;;;;;;7.03;5.05;;;;;;;;;;4948475;28;20796;-71
2023/04/07 14:31:40;;;;;;;6.68;5.47;;;;;;;;;;4949769;28;20398;-71
2023/04/07 14:34:07;;;;;;;8.82;6.18;;;;;;;;;;4933449;28;20046;-71
2023/04/07 14:36:33;;;;;;;9.95;6.45;;;;;;;;;;4950114;28;20086;-71
2023/04/07 14:39:00;;;;;;;6.88;5.40;;;;;;;;;;4964650;28;20038;-71
2023/04/07 14:41:25;;;;;;;7.60;5.90;;;11.10;99.90;;;;;;4966550;28;20050;-71
2023/04/07 14:43:55;;;;;;;7.03;5.63;;;;;;;;;;4952926;28;20042;-72
2023/04/07 14:46:22;;;;;;;6.40;5.57;;;11.00;99.90;;;;;;4930373;28;20507;-71
2023/04/07 14:48:48;;;;;;;7.68;6.03;;;;;;;;;;4959786;28;20074;-71
2023/04/07 14:51:13;;;;;;;9.77;6.20;;;11.00;99.90;;;;;;4975758;28;20054;-71
2023/04/07 14:53:40;;;;;;;7.68;6.13;;;;;;;;;;4943477;28;20086;-71
2023/04/07 14:56:06;;;;;;;7.80;5.93;;;11.10;99.90;;;;;;4972163;28;20047;-71
2023/04/07 14:58:36;;;;;;;9.10;6.40;;;;;;;;;;4950980;28;20496;-70
2023/04/07 15:01:02;;;;;;;7.53;5.72;;;;;;;;;;4949246;28;20074;-70
2023/04/07 15:03:28;;;;;;;7.90;6.78;;;;;;;;;;4968829;28;20057;-70
2023/04/07 15:05:54;;;;;;;9.45;6.72;;;;;;;;;;4935025;28;20049;-70
2023/04/07 15:08:20;;;;;;;8.43;6.53;;;;;;;;;;4953752;28;20481;-71
2023/04/07 15:10:46;;;;;;;8.60;5.88;;;11.10;99.90;;;;;;4950892;28;20054;-70
2023/04/07 15:13:12;;;;;;;7.82;6.45;;;;;;;;;;4968226;28;20051;-71
2023/04/07 15:15:38;;;;;;;7.45;5.50;;;;;;;;;;4954350;28;20057;-72
2023/04/07 15:18:04;;;;;;;7.13;5.80;;;;;;;;;;4949733;28;20101;-70
2023/04/07 15:20:30;;;;;;;7.47;5.50;;;;;;;;;;4949437;28;20047;-74
2023/04/07 15:22:59;;;;;;;10.32;5.55;;;11.10;99.90;;;;;;4968649;28;20043;-71
2023/04/07 15:25:25;;;;;;;7.00;5.68;;;;;;;;;;4967982;28;20086;-72
2023/04/07 15:27:51;;;;;;;8.23;5.80;;;;;;;;;;4953185;28;20042;-72
2023/04/07 15:30:16;;;;;;;8.43;6.05;;;11.30;99.90;;;;;;4949092;28;20057;-71
2023/04/07 15:32:56;;;;;;;7.40;5.88;;;;;;;;;;4966965;28;20070;-70
2023/04/07 15:35:21;;;;;;;6.53;5.82;;;11.30;99.90;;;;;;4970308;28;20039;-71
2023/04/07 15:37:47;;;;;;;6.68;5.95;;;;;;;;;;4949488;28;20054;-70
2023/04/07 15:40:13;;;;;;;8.30;5.80;;;11.20;99.90;;;;;;4948954;28;20050;-71
2023/04/07 15:42:39;;;;;;;8.98;5.75;;;;;;;;;;4950727;28;20121;-71